createdAt,value
2022-08-27T00:02:12.219Z,1014.17
2022-08-27T00:04:43.633Z,1014.18
2022-08-27T00:07:11.687Z,1014.25
2022-08-27T00:09:44.240Z,1014.24
2022-08-27T00:12:11.975Z,1014.25
2022-08-27T00:14:39.705Z,1014.31
2022-08-27T00:17:09.032Z,1014.32
2022-08-27T00:19:37.597Z,1014.48
2022-08-27T00:22:10.729Z,1014.35
2022-08-27T00:24:48.476Z,1014.37
2022-08-27T00:27:19.143Z,1014.30
2022-08-27T00:29:48.623Z,1014.22
2022-08-27T00:32:17.092Z,1014.25
2022-08-27T00:34:47.024Z,1014.32
2022-08-27T00:37:17.209Z,1014.42
2022-08-27T00:39:50.030Z,1014.45
2022-08-27T00:42:20.445Z,1014.35
2022-08-27T00:44:47.552Z,1014.36
2022-08-27T00:47:19.356Z,1014.44
2022-08-27T00:49:52.990Z,1014.47
2022-08-27T00:52:29.967Z,1014.52
2022-08-27T00:55:02.152Z,1014.51
2022-08-27T00:57:34.220Z,1014.65
2022-08-27T01:00:02.438Z,1014.65
2022-08-27T01:02:42.617Z,1014.66
2022-08-27T01:05:12.698Z,1014.84
2022-08-27T01:07:48.247Z,1014.67
2022-08-27T01:10:20.393Z,1014.73
2022-08-27T01:12:53.339Z,1014.66
2022-08-27T01:15:23.870Z,1014.78
2022-08-27T01:17:55.781Z,1014.71
2022-08-27T01:20:31.913Z,1014.83
2022-08-27T01:23:10.520Z,1014.84
2022-08-27T01:25:42.965Z,1014.89
2022-08-27T01:28:16.541Z,1014.82
2022-08-27T01:30:49.405Z,1014.85
2022-08-27T01:33:21.435Z,1014.83
2022-08-27T01:35:51.294Z,1014.92
2022-08-27T01:38:30.756Z,1014.88
2022-08-27T01:41:01.212Z,1014.82
2022-08-27T01:43:28.630Z,1014.85
2022-08-27T01:45:55.740Z,1014.81
2022-08-27T01:48:23.510Z,1014.88
2022-08-27T01:50:54.126Z,1014.89
2022-08-27T01:53:28.156Z,1014.88
2022-08-27T01:55:57.408Z,1015.11
2022-08-27T01:58:30.072Z,1015.07
2022-08-27T02:01:03.891Z,1015.17
2022-08-27T02:03:35.820Z,1015.20
2022-08-27T02:06:06.504Z,1015.13
2022-08-27T02:08:38.127Z,1015.20
2022-08-27T02:11:07.444Z,1015.20
2022-08-27T02:13:38.538Z,1015.17
2022-08-27T02:16:08.823Z,1015.16
2022-08-27T02:18:36.217Z,1015.16
2022-08-27T02:21:09.173Z,1015.07
2022-08-27T02:23:36.217Z,1015.09
2022-08-27T02:26:05.868Z,1015.07
2022-08-27T02:28:34.116Z,1015.08
2022-08-27T02:31:05.936Z,1015.11
2022-08-27T02:33:33.623Z,1015.16
2022-08-27T02:36:04.457Z,1015.04
2022-08-27T02:38:37.358Z,1014.95
2022-08-27T02:41:09.319Z,1015.03
2022-08-27T02:43:36.255Z,1015.06
2022-08-27T02:46:09.990Z,1015.01
2022-08-27T02:48:37.891Z,1014.99
2022-08-27T02:51:08.007Z,1014.97
2022-08-27T02:53:38.305Z,1014.93
2022-08-27T02:56:11.413Z,1014.81
2022-08-27T02:58:40.963Z,1014.91
2022-08-27T03:01:13.780Z,1014.85
2022-08-27T03:03:43.365Z,1014.67
2022-08-27T03:06:12.142Z,1014.72
2022-08-27T03:08:52.927Z,1014.72
2022-08-27T03:11:22.586Z,1014.67
2022-08-27T03:16:28.599Z,1014.71
2022-08-27T03:18:59.043Z,1014.62
2022-08-27T03:21:27.387Z,1014.72
2022-08-27T03:23:56.704Z,1014.70
2022-08-27T03:26:24.531Z,1014.66
2022-08-27T03:28:52.605Z,1014.64
2022-08-27T03:31:22.393Z,1014.60
2022-08-27T03:34:02.258Z,1014.68
2022-08-27T03:36:31.580Z,1014.64
2022-08-27T03:38:58.804Z,1014.66
2022-08-27T03:41:43.458Z,1014.64
2022-08-27T03:44:21.309Z,1014.57
2022-08-27T03:46:49.901Z,1014.46
2022-08-27T03:49:22.861Z,1014.58
2022-08-27T03:51:52.816Z,1014.59
2022-08-27T03:54:21.655Z,1014.58
2022-08-27T03:56:48.859Z,1014.57
2022-08-27T03:59:19.858Z,1014.67
2022-08-27T04:01:49.044Z,1014.57
2022-08-27T04:04:26.237Z,1014.66
2022-08-27T04:06:57.863Z,1014.74
2022-08-27T04:09:26.750Z,1014.70
2022-08-27T04:11:55.328Z,1014.58
2022-08-27T04:14:27.135Z,1014.74
2022-08-27T04:16:56.632Z,1014.74
2022-08-27T04:19:31.527Z,1014.66
2022-08-27T04:22:06.331Z,1014.69
2022-08-27T04:24:36.644Z,1014.83
2022-08-27T04:27:11.671Z,1014.93
2022-08-27T04:29:45.184Z,1014.89
2022-08-27T04:32:17.198Z,1014.88
2022-08-27T04:34:44.490Z,1014.87
2022-08-27T04:37:23.131Z,1014.85
2022-08-27T04:39:51.072Z,1014.80
2022-08-27T04:42:19.385Z,1014.79
2022-08-27T04:44:47.067Z,1014.84
2022-08-27T04:47:23.164Z,1014.82
2022-08-27T04:49:51.495Z,1014.92
2022-08-27T04:52:26.814Z,1014.91
2022-08-27T04:55:01.121Z,1014.97
2022-08-27T04:57:31.707Z,1014.97
2022-08-27T04:59:58.794Z,1014.93
2022-08-27T05:02:28.641Z,1014.83
2022-08-27T05:04:55.454Z,1014.96
2022-08-27T05:07:25.274Z,1014.94
2022-08-27T05:09:58.379Z,1014.89
2022-08-27T05:12:31.109Z,1014.87
2022-08-27T05:14:58.975Z,1014.93
2022-08-27T05:17:27.460Z,1014.82
2022-08-27T05:19:57.910Z,1014.79
2022-08-27T05:22:25.010Z,1014.69
2022-08-27T05:24:56.089Z,1014.72
2022-08-27T05:27:24.474Z,1014.65
2022-08-27T05:29:51.499Z,1014.52
2022-08-27T05:32:19.301Z,1014.51
2022-08-27T05:34:47.428Z,1014.53
2022-08-27T05:37:14.415Z,1014.44
2022-08-27T05:39:41.645Z,1014.51
2022-08-27T05:42:08.534Z,1014.49
2022-08-27T05:44:41.060Z,1014.52
2022-08-27T05:47:11.111Z,1014.41
2022-08-27T05:49:37.930Z,1014.39
2022-08-27T05:52:11.008Z,1014.08
2022-08-27T05:54:38.618Z,1013.60
2022-08-27T05:57:12.472Z,1013.42
2022-08-27T05:59:44.893Z,1013.33
2022-08-27T06:02:13.054Z,1013.09
2022-08-27T06:04:40.366Z,1013.26
2022-08-27T06:07:11.738Z,1013.21
2022-08-27T06:09:43.835Z,1013.03
2022-08-27T06:12:14.699Z,1013.04
2022-08-27T06:14:48.095Z,1012.94
2022-08-27T06:17:18.947Z,1012.97
2022-08-27T06:19:49.347Z,1012.99
2022-08-27T06:22:23.222Z,1012.92
2022-08-27T06:24:51.369Z,1012.85
2022-08-27T06:27:20.084Z,1012.69
2022-08-27T06:29:53.109Z,1012.63
2022-08-27T06:32:24.092Z,1012.54
2022-08-27T06:34:51.469Z,1012.52
2022-08-27T06:37:21.309Z,1012.35
2022-08-27T06:39:50.333Z,1012.37
2022-08-27T06:42:19.798Z,1012.36
2022-08-27T06:45:11.425Z,1012.44
2022-08-27T06:47:43.051Z,1012.58
2022-08-27T06:50:10.444Z,1012.61
2022-08-27T06:52:37.398Z,1012.54
2022-08-27T06:55:08.813Z,1012.55
2022-08-27T06:57:39.000Z,1012.56
2022-08-27T07:00:12.433Z,1012.61
2022-08-27T07:02:50.276Z,1012.64
2022-08-27T07:05:21.397Z,1012.66
2022-08-27T07:07:50.010Z,1012.74
2022-08-27T07:10:18.480Z,1012.76
2022-08-27T07:12:46.994Z,1012.82
2022-08-27T07:15:13.872Z,1012.94
2022-08-27T07:17:41.923Z,1013.10
2022-08-27T07:20:11.036Z,1013.26
2022-08-27T07:22:41.237Z,1013.08
2022-08-27T07:25:12.345Z,1012.96
2022-08-27T07:27:40.268Z,1013.06
2022-08-27T07:30:11.975Z,1012.78
2022-08-27T07:32:39.717Z,1012.79
2022-08-27T07:35:08.175Z,1012.91
2022-08-27T07:37:42.471Z,1012.89
2022-08-27T07:40:12.609Z,1012.79
2022-08-27T07:42:47.110Z,1012.61
2022-08-27T07:45:14.072Z,1012.70
2022-08-27T07:47:42.456Z,1012.91
2022-08-27T07:50:10.714Z,1012.91
2022-08-27T07:52:46.626Z,1012.84
2022-08-27T07:55:17.684Z,1012.79
2022-08-27T07:57:47.023Z,1012.67
2022-08-27T08:00:17.021Z,1012.60
2022-08-27T08:02:52.019Z,1012.62
2022-08-27T08:05:21.890Z,1012.47
2022-08-27T08:07:53.340Z,1012.24
2022-08-27T08:10:22.999Z,1012.05
2022-08-27T08:12:53.150Z,1011.90
2022-08-27T08:15:21.783Z,1011.71
2022-08-27T08:17:49.651Z,1011.85
2022-08-27T08:20:35.652Z,1011.79
2022-08-27T08:23:10.653Z,1011.75
2022-08-27T08:25:38.880Z,1011.80
2022-08-27T08:28:07.105Z,1011.75
2022-08-27T08:30:37.392Z,1011.69
2022-08-27T08:33:04.630Z,1011.52
2022-08-27T08:35:40.862Z,1011.48
2022-08-27T08:38:17.841Z,1011.41
2022-08-27T08:40:49.617Z,1011.14
2022-08-27T08:43:31.941Z,1011.04
2022-08-27T08:46:16.216Z,1010.93
2022-08-27T08:48:52.667Z,1010.78
2022-08-27T08:51:25.622Z,1010.90
2022-08-27T08:54:00.046Z,1010.78
2022-08-27T08:56:43.276Z,1010.77
2022-08-27T08:59:23.827Z,1010.65
2022-08-27T09:01:58.576Z,1010.53
2022-08-27T09:04:29.994Z,1010.37
2022-08-27T09:07:08.748Z,1010.33
2022-08-27T09:09:47.171Z,1010.26
2022-08-27T09:12:25.771Z,1010.27
2022-08-27T09:15:05.130Z,1010.28
2022-08-27T09:17:34.097Z,1010.43
2022-08-27T09:20:02.294Z,1010.41
2022-08-27T09:22:40.980Z,1010.13
2022-08-27T09:25:25.546Z,1010.03
2022-08-27T09:27:56.982Z,1009.94
2022-08-27T09:30:30.714Z,1009.89
2022-08-27T09:33:00.442Z,1009.83
2022-08-27T09:35:45.632Z,1009.82
2022-08-27T09:38:24.460Z,1009.91
2022-08-27T09:41:01.893Z,1009.83
2022-08-27T09:43:30.531Z,1009.76
2022-08-27T09:46:00.066Z,1009.62
2022-08-27T09:48:31.729Z,1009.55
2022-08-27T09:51:01.830Z,1009.47
2022-08-27T09:53:33.855Z,1009.46
2022-08-27T09:56:04.322Z,1009.42
2022-08-27T09:58:36.798Z,1009.40
2022-08-27T10:01:10.074Z,1009.46
2022-08-27T10:03:39.384Z,1009.42
2022-08-27T10:06:08.274Z,1009.40
2022-08-27T10:08:38.485Z,1009.46
2022-08-27T10:11:14.723Z,1009.26
2022-08-27T10:13:54.338Z,1009.23
2022-08-27T10:16:41.794Z,1009.12
2022-08-27T10:19:18.925Z,1009.01
2022-08-27T10:21:52.420Z,1008.98
2022-08-27T10:24:28.208Z,1009.04
2022-08-27T10:27:19.799Z,1009.01
2022-08-27T10:29:53.366Z,1009.25
2022-08-27T10:32:39.475Z,1009.05
2022-08-27T10:35:14.098Z,1009.00
2022-08-27T10:38:00.385Z,1009.01
2022-08-27T10:40:35.596Z,1008.84
2022-08-27T10:43:23.607Z,1008.78
2022-08-27T10:46:01.038Z,1008.64
2022-08-27T10:48:37.009Z,1008.59
2022-08-27T10:51:09.881Z,1008.56
2022-08-27T10:53:46.696Z,1008.40
2022-08-27T10:56:22.073Z,1008.39
2022-08-27T10:59:03.085Z,1008.27
2022-08-27T11:01:40.316Z,1008.44
2022-08-27T11:04:14.695Z,1008.54
2022-08-27T11:06:44.753Z,1008.53
2022-08-27T11:09:19.222Z,1008.41
2022-08-27T11:14:45.575Z,1008.39
2022-08-27T11:17:17.295Z,1008.34
2022-08-27T11:19:54.355Z,1008.26
2022-08-27T11:22:26.799Z,1008.04
2022-08-27T11:25:00.789Z,1008.16
2022-08-27T11:30:30.296Z,1007.79
2022-08-27T11:33:05.748Z,1007.72
2022-08-27T11:35:51.197Z,1007.66
2022-08-27T11:38:42.332Z,1007.65
2022-08-27T11:41:29.355Z,1007.70
2022-08-27T11:44:14.014Z,1007.60
2022-08-27T11:46:53.650Z,1007.46
2022-08-27T11:49:40.777Z,1007.59
2022-08-27T11:52:09.466Z,1007.51
2022-08-27T11:54:48.171Z,1007.48
2022-08-27T11:57:27.060Z,1007.39
2022-08-27T11:59:55.834Z,1007.35
2022-08-27T12:02:27.070Z,1007.32
2022-08-27T12:05:13.030Z,1007.35
2022-08-27T12:07:49.626Z,1007.35
2022-08-27T12:10:29.622Z,1007.24
2022-08-27T12:13:16.377Z,1007.29
2022-08-27T12:15:55.926Z,1007.18
2022-08-27T12:18:56.315Z,1007.18
2022-08-27T12:21:42.789Z,1007.15
2022-08-27T12:24:21.596Z,1007.21
2022-08-27T12:26:57.688Z,1007.28
2022-08-27T12:29:30.766Z,1007.31
2022-08-27T12:32:05.318Z,1007.42
2022-08-27T12:34:45.456Z,1007.53
2022-08-27T12:37:14.702Z,1007.70
2022-08-27T12:39:45.428Z,1007.95
2022-08-27T12:42:15.040Z,1008.05
2022-08-27T12:44:44.180Z,1008.29
2022-08-27T12:47:20.272Z,1008.45
2022-08-27T12:49:57.561Z,1008.55
2022-08-27T12:52:49.358Z,1008.78
2022-08-27T12:55:29.109Z,1008.94
2022-08-27T12:58:06.385Z,1009.03
2022-08-27T13:00:49.672Z,1009.04
2022-08-27T13:03:33.163Z,1009.16
2022-08-27T13:06:17.053Z,1009.34
2022-08-27T13:08:44.140Z,1009.51
2022-08-27T13:11:18.179Z,1009.40
2022-08-27T13:13:45.686Z,1009.43
2022-08-27T13:16:16.307Z,1009.57
2022-08-27T13:18:47.542Z,1009.71
2022-08-27T13:21:22.964Z,1009.71
2022-08-27T13:23:58.489Z,1009.76
2022-08-27T13:26:32.864Z,1009.71
2022-08-27T13:29:03.705Z,1009.68
2022-08-27T13:31:33.261Z,1009.84
2022-08-27T13:34:03.571Z,1009.89
2022-08-27T13:36:55.610Z,1010.01
2022-08-27T13:39:24.953Z,1010.16
2022-08-27T13:41:57.057Z,1010.11
2022-08-27T13:44:32.822Z,1010.23
2022-08-27T13:47:03.611Z,1010.27
2022-08-27T13:49:33.534Z,1010.34
2022-08-27T13:52:23.814Z,1010.29
2022-08-27T13:55:00.410Z,1010.29
2022-08-27T13:57:35.082Z,1010.32
2022-08-27T14:00:07.967Z,1010.47
2022-08-27T14:02:37.356Z,1010.46
2022-08-27T14:05:10.356Z,1010.33
2022-08-27T14:07:43.766Z,1010.48
2022-08-27T14:10:29.635Z,1010.54
2022-08-27T14:12:59.392Z,1010.51
2022-08-27T14:15:32.088Z,1010.61
2022-08-27T14:18:02.372Z,1010.68
2022-08-27T14:20:29.724Z,1010.78
2022-08-27T14:22:58.043Z,1010.70
2022-08-27T14:25:30.496Z,1010.76
2022-08-27T14:27:57.341Z,1010.94
2022-08-27T14:30:29.968Z,1010.90
2022-08-27T14:32:59.311Z,1010.92
2022-08-27T14:35:26.958Z,1011.05
2022-08-27T14:37:55.607Z,1010.94
2022-08-27T14:40:33.056Z,1011.07
2022-08-27T14:43:00.018Z,1011.06
2022-08-27T14:45:29.447Z,1011.09
2022-08-27T14:48:02.186Z,1011.04
2022-08-27T14:50:34.963Z,1011.10
2022-08-27T14:53:01.810Z,1011.12
2022-08-27T14:55:35.396Z,1011.12
2022-08-27T14:58:03.533Z,1011.15
2022-08-27T15:00:31.635Z,1011.12
2022-08-27T15:03:03.599Z,1011.16
2022-08-27T15:05:32.211Z,1011.38
2022-08-27T15:07:59.434Z,1011.49
2022-08-27T15:10:27.809Z,1011.31
2022-08-27T15:12:58.329Z,1011.30
2022-08-27T15:15:25.702Z,1011.44
2022-08-27T15:17:57.873Z,1011.56
2022-08-27T15:20:24.689Z,1011.38
2022-08-27T15:22:55.425Z,1011.59
2022-08-27T15:25:25.871Z,1011.82
2022-08-27T15:27:55.263Z,1011.98
2022-08-27T15:30:29.186Z,1012.16
2022-08-27T15:33:21.225Z,1012.23
2022-08-27T15:35:49.599Z,1012.28
2022-08-27T15:38:18.674Z,1012.23
2022-08-27T15:40:45.808Z,1012.25
2022-08-27T15:43:14.189Z,1012.29
2022-08-27T15:45:42.645Z,1012.32
2022-08-27T15:48:11.309Z,1012.25
2022-08-27T15:50:38.692Z,1012.25
2022-08-27T15:53:07.958Z,1012.33
2022-08-27T15:55:37.619Z,1012.29
2022-08-27T15:58:08.446Z,1012.35
2022-08-27T16:00:39.409Z,1012.49
2022-08-27T16:03:16.053Z,1012.58
2022-08-27T16:05:46.923Z,1012.59
2022-08-27T16:08:15.041Z,1012.65
2022-08-27T16:10:42.266Z,1012.62
2022-08-27T16:13:09.863Z,1012.61
2022-08-27T16:15:43.252Z,1012.72
2022-08-27T16:18:12.848Z,1012.85
2022-08-27T16:20:40.721Z,1012.89
2022-08-27T16:23:15.189Z,1012.98
2022-08-27T16:25:45.506Z,1013.09
2022-08-27T16:28:13.269Z,1013.14
2022-08-27T16:30:40.835Z,1013.16
2022-08-27T16:33:09.566Z,1013.09
2022-08-27T16:35:42.085Z,1013.19
2022-08-27T16:38:11.414Z,1013.39
2022-08-27T16:40:42.517Z,1013.41
2022-08-27T16:43:12.652Z,1013.48
2022-08-27T16:45:40.066Z,1013.52
2022-08-27T16:48:07.043Z,1013.55
2022-08-27T16:50:42.962Z,1013.60
2022-08-27T16:53:13.732Z,1013.66
2022-08-27T16:55:41.840Z,1013.77
2022-08-27T16:58:15.172Z,1013.90
2022-08-27T17:00:44.132Z,1014.01
2022-08-27T17:03:13.877Z,1014.14
2022-08-27T17:05:43.068Z,1014.01
2022-08-27T17:08:12.762Z,1014.29
2022-08-27T17:10:47.130Z,1014.25
2022-08-27T17:13:19.937Z,1014.30
2022-08-27T17:15:52.587Z,1014.31
2022-08-27T17:18:22.787Z,1014.38
2022-08-27T17:20:59.562Z,1014.43
2022-08-27T17:23:33.949Z,1014.62
2022-08-27T17:26:03.032Z,1014.79
2022-08-27T17:28:30.153Z,1014.91
2022-08-27T17:31:00.896Z,1014.92
2022-08-27T17:33:32.173Z,1014.83
2022-08-27T17:36:00.642Z,1014.76
2022-08-27T17:38:32.023Z,1014.68
2022-08-27T17:40:59.311Z,1014.67
2022-08-27T17:43:26.308Z,1014.55
2022-08-27T17:45:53.211Z,1014.55
2022-08-27T17:48:26.058Z,1014.41
2022-08-27T17:50:54.037Z,1014.43
2022-08-27T17:53:23.703Z,1014.39
2022-08-27T17:55:51.979Z,1014.44
2022-08-27T17:58:21.495Z,1014.37
2022-08-27T18:00:49.569Z,1014.57
2022-08-27T18:03:20.674Z,1014.56
2022-08-27T18:05:48.608Z,1014.59
2022-08-27T18:08:20.565Z,1014.47
2022-08-27T18:10:53.823Z,1014.50
2022-08-27T18:13:21.865Z,1014.53
2022-08-27T18:15:48.992Z,1014.52
2022-08-27T18:18:18.750Z,1014.56
2022-08-27T18:20:49.845Z,1014.61
2022-08-27T18:23:19.396Z,1014.60
2022-08-27T18:25:47.016Z,1014.64
2022-08-27T18:28:20.086Z,1014.61
2022-08-27T18:30:49.602Z,1014.56
2022-08-27T18:33:18.886Z,1014.68
2022-08-27T18:35:48.190Z,1014.69
2022-08-27T18:38:15.818Z,1014.86
2022-08-27T18:40:49.160Z,1014.87
2022-08-27T18:43:20.763Z,1014.94
2022-08-27T18:45:54.126Z,1014.93
2022-08-27T18:48:22.502Z,1015.04
2022-08-27T18:50:52.026Z,1015.16
2022-08-27T18:53:19.993Z,1015.27
2022-08-27T18:55:48.562Z,1015.12
2022-08-27T18:58:16.281Z,1015.20
2022-08-27T19:00:48.496Z,1015.34
2022-08-27T19:03:22.990Z,1015.52
2022-08-27T19:05:54.993Z,1015.55
2022-08-27T19:08:23.774Z,1015.49
2022-08-27T19:10:53.014Z,1015.59
2022-08-27T19:13:26.624Z,1015.55
2022-08-27T19:16:00.123Z,1015.55
2022-08-27T19:18:29.504Z,1015.54
2022-08-27T19:21:01.677Z,1015.59
2022-08-27T19:23:29.495Z,1015.53
2022-08-27T19:26:02.363Z,1015.52
2022-08-27T19:28:38.153Z,1015.64
2022-08-27T19:31:11.535Z,1015.72
2022-08-27T19:33:39.041Z,1015.83
2022-08-27T19:36:12.581Z,1015.95
2022-08-27T19:38:43.338Z,1016.03
2022-08-27T19:41:12.471Z,1016.00
2022-08-27T19:43:40.996Z,1016.01
2022-08-27T19:46:20.663Z,1015.94
2022-08-27T19:48:49.064Z,1015.96
2022-08-27T19:51:18.885Z,1016.09
2022-08-27T19:53:46.363Z,1016.02
2022-08-27T19:56:14.393Z,1016.20
2022-08-27T19:58:42.302Z,1016.36
2022-08-27T20:01:10.964Z,1016.50
2022-08-27T20:03:43.764Z,1016.38
2022-08-27T20:06:12.367Z,1016.53
2022-08-27T20:08:41.752Z,1016.64
2022-08-27T20:11:09.284Z,1016.65
2022-08-27T20:13:38.501Z,1016.65
2022-08-27T20:16:18.944Z,1016.64
2022-08-27T20:18:49.295Z,1016.63
2022-08-27T20:21:16.422Z,1016.60
2022-08-27T20:23:47.872Z,1016.63
2022-08-27T20:26:15.753Z,1016.66
2022-08-27T20:28:45.647Z,1016.61
2022-08-27T20:31:13.918Z,1016.70
2022-08-27T20:33:41.520Z,1016.64
2022-08-27T20:36:13.535Z,1016.59
2022-08-27T20:38:49.599Z,1016.54
2022-08-27T20:41:16.967Z,1016.66
2022-08-27T20:43:44.734Z,1016.58
2022-08-27T20:46:14.460Z,1016.53
2022-08-27T20:48:41.922Z,1016.67
2022-08-27T20:51:10.983Z,1016.66
2022-08-27T20:53:39.014Z,1016.56
2022-08-27T20:56:07.403Z,1016.51
2022-08-27T20:58:34.741Z,1016.50
2022-08-27T21:01:05.069Z,1016.51
2022-08-27T21:03:33.111Z,1016.57
2022-08-27T21:06:01.175Z,1016.59
2022-08-27T21:08:31.880Z,1016.55
2022-08-27T21:10:58.929Z,1016.47
2022-08-27T21:13:27.841Z,1016.57
2022-08-27T21:15:56.497Z,1016.57
2022-08-27T21:18:29.295Z,1016.61
2022-08-27T21:21:00.068Z,1016.68
2022-08-27T21:23:27.768Z,1016.69
2022-08-27T21:26:01.565Z,1016.69
2022-08-27T21:28:28.593Z,1016.80
2022-08-27T21:30:56.686Z,1016.86
2022-08-27T21:33:24.090Z,1016.80
2022-08-27T21:35:51.178Z,1016.74
2022-08-27T21:38:17.972Z,1016.68
2022-08-27T21:40:44.919Z,1016.65
2022-08-27T21:43:13.516Z,1016.71
2022-08-27T21:45:40.636Z,1016.64
2022-08-27T21:48:12.736Z,1016.59
2022-08-27T21:50:40.012Z,1016.55
2022-08-27T21:53:06.983Z,1016.51
2022-08-27T21:55:34.383Z,1016.50
2022-08-27T21:58:02.722Z,1016.51
2022-08-27T22:00:44.442Z,1016.47
2022-08-27T22:03:17.384Z,1016.54
2022-08-27T22:05:47.647Z,1016.58
2022-08-27T22:08:21.153Z,1016.63
2022-08-27T22:10:51.908Z,1016.46
2022-08-27T22:13:19.899Z,1016.43
2022-08-27T22:15:48.724Z,1016.39
2022-08-27T22:18:19.801Z,1016.31
2022-08-27T22:20:50.730Z,1016.21
2022-08-27T22:23:21.286Z,1016.27
2022-08-27T22:25:51.070Z,1016.32
2022-08-27T22:28:24.399Z,1016.28
2022-08-27T22:30:53.042Z,1016.21
2022-08-27T22:33:20.450Z,1016.28
2022-08-27T22:35:48.519Z,1016.35
2022-08-27T22:38:15.406Z,1016.48
2022-08-27T22:40:45.244Z,1016.50
2022-08-27T22:43:14.640Z,1016.53
2022-08-27T22:45:42.934Z,1016.50
2022-08-27T22:48:12.365Z,1016.47
2022-08-27T22:50:42.240Z,1016.51
2022-08-27T22:53:13.364Z,1016.48
2022-08-27T22:55:46.758Z,1016.52
2022-08-27T22:58:19.164Z,1016.47
2022-08-27T23:00:52.809Z,1016.53
2022-08-27T23:03:24.575Z,1016.61
2022-08-27T23:05:51.964Z,1016.62
2022-08-27T23:08:19.292Z,1016.48
2022-08-27T23:10:49.228Z,1016.48
2022-08-27T23:13:18.394Z,1016.49
2022-08-27T23:15:46.447Z,1016.53
2022-08-27T23:18:15.331Z,1016.52
2022-08-27T23:20:45.520Z,1016.59
2022-08-27T23:23:12.870Z,1016.50
2022-08-27T23:25:43.844Z,1016.46
2022-08-27T23:28:14.259Z,1016.39
2022-08-27T23:30:45.597Z,1016.43
2022-08-27T23:33:14.234Z,1016.47
2022-08-27T23:35:43.759Z,1016.59
2022-08-27T23:38:13.379Z,1016.50
2022-08-27T23:40:42.618Z,1016.54
2022-08-27T23:43:11.241Z,1016.57
2022-08-27T23:45:40.788Z,1016.63
2022-08-27T23:48:09.818Z,1016.71
2022-08-27T23:50:40.246Z,1016.80
2022-08-27T23:53:10.617Z,1017.04
2022-08-27T23:55:37.846Z,1017.10
2022-08-27T23:58:11.884Z,1017.13
